Time;durP1;ratioP1;P1;durP2;ratioP2;P2;SDS_P1;SDS_P2;PMS_P1;PMS_P2;Temp;Humidity;BMP_temperature;BMP_pressure;BME280_temperature;BME280_humidity;BME280_pressure;Samples;Min_cycle;Max_cycle;Signal;HPM_P1;HPM_P2
2024/01/27 00:00:57;;;;;;;1.70;1.60;;;;;;;1.41;100.00;100543.73;104777;1257;73824;-56
2024/01/27 00:03:24;;;;;;;2.20;1.10;;;;;;;1.38;100.00;100546.89;104811;1260;67461;-57
2024/01/27 00:05:52;;;;;;;1.90;1.10;;;;;;;1.35;100.00;100544.77;104739;1263;71022;-55
2024/01/27 00:08:21;;;;;;;1.20;1.10;;;;;;;1.32;100.00;100544.77;105011;1258;60619;-57
2024/01/27 00:10:48;;;;;;;1.30;1.10;;;;;;;1.30;100.00;100543.34;104716;1257;60773;-56
2024/01/27 00:13:15;;;;;;;1.70;1.00;;;;;;;1.31;100.00;100539.29;104452;1263;72599;-56
2024/01/27 00:15:43;;;;;;;1.40;0.90;;;;;;;1.35;100.00;100541.41;104736;1257;67401;-57
2024/01/27 00:18:10;;;;;;;1.10;1.00;;;;;;;1.38;100.00;100541.58;104928;1257;72715;-57
2024/01/27 00:20:38;;;;;;;1.60;0.90;;;;;;;1.40;100.00;100543.01;104917;1258;60446;-54
2024/01/27 00:23:05;;;;;;;1.40;1.30;;;;;;;1.40;100.00;100537.35;104847;1257;60496;-56
2024/01/27 00:25:33;;;;;;;3.60;1.10;;;;;;;1.39;100.00;100537.34;104635;1257;74341;-57
2024/01/27 00:28:00;;;;;;;1.40;1.10;;;;;;;1.37;100.00;100534.34;104712;1257;67049;-55
2024/01/27 00:30:27;;;;;;;1.70;1.40;;;;;;;1.34;100.00;100534.52;105026;1257;73416;-56
2024/01/27 00:32:55;;;;;;;1.90;1.00;;;;;;;1.30;100.00;100534.33;104896;1263;60655;-56
2024/01/27 00:35:22;;;;;;;1.40;1.30;;;;;;;1.28;100.00;100537.85;104917;1257;61251;-57
2024/01/27 00:37:49;;;;;;;1.80;1.20;;;;;;;1.27;100.00;100538.92;104870;1263;74393;-57
2024/01/27 00:40:17;;;;;;;1.30;0.90;;;;;;;1.26;100.00;100540.52;104847;1257;66928;-57
2024/01/27 00:42:44;;;;;;;1.50;1.40;;;;;;;1.28;100.00;100539.10;104956;1257;71378;-57
2024/01/27 00:45:11;;;;;;;1.30;1.00;;;;;;;1.32;100.00;100539.64;104976;1263;60523;-57
2024/01/27 00:47:39;;;;;;;1.40;1.20;;;;;;;1.36;100.00;100543.54;104920;1262;62025;-55
2024/01/27 00:50:08;;;;;;;2.50;1.20;;;;;;;1.40;100.00;100544.59;105107;1257;72622;-57
2024/01/27 00:52:35;;;;;;;2.80;1.40;;;;;;;1.43;100.00;100546.39;105000;1257;66760;-57
2024/01/27 00:55:03;;;;;;;1.90;1.30;;;;;;;1.42;100.00;100546.20;104952;1264;72764;-56
2024/01/27 00:57:30;;;;;;;2.30;1.60;;;;;;;1.40;100.00;100545.31;104775;1258;60466;-55
2024/01/27 00:59:58;;;;;;;2.10;1.40;;;;;;;1.37;100.00;100544.59;104713;1264;60562;-56
2024/01/27 01:02:25;;;;;;;1.50;1.40;;;;;;;1.34;100.00;100543.54;104644;1256;73904;-54
2024/01/27 01:04:52;;;;;;;2.60;1.20;;;;;;;1.29;100.00;100538.39;104545;1257;66991;-56
2024/01/27 01:07:20;;;;;;;1.50;1.40;;;;;;;1.27;100.00;100538.40;104759;1263;72758;-57
2024/01/27 01:09:47;;;;;;;1.50;1.00;;;;;;;1.29;100.00;100539.45;104561;1257;60545;-56
2024/01/27 01:12:15;;;;;;;1.50;1.10;;;;;;;1.34;100.00;100537.70;104709;1257;60652;-56
2024/01/27 01:14:43;;;;;;;1.30;1.20;;;;;;;1.36;100.00;100537.86;105311;1257;72644;-56
2024/01/27 01:17:10;;;;;;;1.10;0.80;;;;;;;1.35;100.00;100538.59;104980;1257;68192;-56
2024/01/27 01:19:38;;;;;;;1.60;1.40;;;;;;;1.34;100.00;100537.17;104736;1258;72648;-56
2024/01/27 01:22:05;;;;;;;2.40;1.50;;;;;;;1.33;100.00;100535.23;105562;1261;60535;-56
2024/01/27 01:24:35;;;;;;;1.40;1.30;;;;;;;1.32;100.00;100533.80;104799;1262;60559;-57
2024/01/27 01:27:03;;;;;;;2.00;1.30;;;;;;;1.29;100.00;100532.90;104895;1258;72644;-57
2024/01/27 01:29:31;;;;;;;4.60;2.20;;;;;;;1.26;100.00;100528.85;106116;1261;65654;-56
2024/01/27 01:31:58;;;;;;;2.00;1.20;;;;;;;1.25;100.00;100528.31;104546;1258;72646;-57
2024/01/27 01:34:25;;;;;;;2.30;1.60;;;;;;;1.24;100.00;100526.90;104618;1257;60953;-57
2024/01/27 01:36:54;;;;;;;1.60;1.00;;;;;;;1.25;100.00;100528.48;104892;1257;60321;-55
2024/01/27 01:39:21;;;;;;;1.60;1.10;;;;;;;1.26;100.00;100525.14;105011;1262;73780;-57
2024/01/27 01:41:48;;;;;;;2.20;1.10;;;;;;;1.29;100.00;100524.41;104789;1257;65763;-57
2024/01/27 01:44:16;;;;;;;1.30;1.20;;;;;;;1.31;100.00;100522.66;104486;1258;72700;-57
2024/01/27 01:46:43;;;;;;;1.30;1.20;;;;;;;1.33;100.00;100525.14;104419;1260;59546;-58
2024/01/27 01:49:10;;;;;;;2.30;1.10;;;;;;;1.32;100.00;100524.96;104703;1257;60728;-58
2024/01/27 01:51:38;;;;;;;1.20;1.10;;;;;;;1.30;100.00;100520.71;104516;1258;72582;-58
2024/01/27 01:54:05;;;;;;;1.30;1.20;;;;;;;1.27;100.00;100522.14;104445;1257;65622;-57
2024/01/27 01:56:33;;;;;;;1.20;1.00;;;;;;;1.23;100.00;100517.70;108853;1257;72182;-59
2024/01/27 01:59:00;;;;;;;1.60;1.10;;;;;;;1.20;100.00;100515.20;108620;1257;61235;-55
2024/01/27 02:01:28;;;;;;;1.40;1.30;;;;;;;1.17;100.00;100509.55;108808;1256;58821;-57
2024/01/27 02:03:56;;;;;;;1.30;1.20;;;;;;;1.17;100.00;100509.92;107337;1258;73339;-56
2024/01/27 02:06:24;;;;;;;1.80;1.00;;;;;;;1.20;100.00;100510.44;104661;1257;67487;-57
2024/01/27 02:08:51;;;;;;;1.10;0.90;;;;;;;1.21;100.00;100510.44;104859;1261;72414;-58
2024/01/27 02:11:18;;;;;;;1.60;1.20;;;;;;;1.24;100.00;100513.11;104766;1257;60417;-57
2024/01/27 02:13:46;;;;;;;1.50;1.30;;;;;;;1.25;100.00;100516.30;104874;1260;60655;-58
2024/01/27 02:16:14;;;;;;;2.00;1.30;;;;;;;1.26;100.00;100517.01;104722;1257;74855;-58
2024/01/27 02:18:41;;;;;;;1.40;1.10;;;;;;;1.26;100.00;100516.65;108623;1257;66781;-59
2024/01/27 02:21:08;;;;;;;1.30;1.00;;;;;;;1.24;100.00;100515.58;108861;1257;72024;-56
2024/01/27 02:23:36;;;;;;;1.80;1.20;;;;;;;1.22;100.00;100513.10;108786;1257;60936;-56
2024/01/27 02:26:03;;;;;;;1.00;0.90;;;;;;;1.21;100.00;100514.67;107140;1256;60661;-55
2024/01/27 02:28:33;;;;;;;1.30;0.90;;;;;;;1.18;100.00;100515.58;104749;1258;72639;-56
2024/01/27 02:31:00;;;;;;;1.20;0.90;;;;;;;1.18;100.00;100518.23;104680;1262;67319;-55
2024/01/27 02:33:28;;;;;;;2.20;1.40;;;;;;;1.22;100.00;100519.99;104676;1258;70531;-56
2024/01/27 02:35:55;;;;;;;1.20;1.00;;;;;;;1.26;100.00;100527.61;105330;1262;60856;-56
2024/01/27 02:38:23;;;;;;;1.10;1.00;;;;;;;1.30;100.00;100528.30;104874;1257;62297;-54
2024/01/27 02:40:50;;;;;;;1.10;1.00;;;;;;;1.32;100.00;100527.96;104902;1257;73314;-55
2024/01/27 02:43:17;;;;;;;1.30;1.10;;;;;;;1.35;100.00;100531.70;104782;1257;67245;-55
2024/01/27 02:45:45;;;;;;;1.20;1.00;;;;;;;1.36;100.00;100532.91;104927;1257;71493;-51
2024/01/27 02:48:12;;;;;;;1.60;1.00;;;;;;;1.36;100.00;100531.48;105020;1257;60549;-55
2024/01/27 02:50:39;;;;;;;1.10;1.00;;;;;;;1.35;100.00;100532.41;105088;1260;60447;-55
2024/01/27 02:53:07;;;;;;;1.10;0.90;;;;;;;1.33;100.00;100531.16;104921;1257;73061;-54
2024/01/27 02:55:34;;;;;;;1.70;1.00;;;;;;;1.31;100.00;100530.26;104954;1263;67517;-54
2024/01/27 02:58:02;;;;;;;1.40;0.90;;;;;;;1.30;100.00;100532.55;105007;1257;71551;-54
2024/01/27 03:00:29;;;;;;;1.10;1.00;;;;;;;1.29;100.00;100530.08;104855;1260;61316;-56
2024/01/27 03:02:58;;;;;;;1.30;0.80;;;;;;;1.28;100.00;100529.54;104926;1257;60975;-59
2024/01/27 03:05:25;;;;;;;1.50;1.00;;;;;;;1.29;100.00;100530.78;105541;1263;72867;-52
2024/01/27 03:07:53;;;;;;;1.00;0.90;;;;;;;1.28;100.00;100528.66;104828;1257;65818;-56
2024/01/27 03:10:20;;;;;;;1.30;0.90;;;;;;;1.28;100.00;100528.66;105255;1257;72763;-59
2024/01/27 03:12:48;;;;;;;1.10;0.90;;;;;;;1.30;100.00;100532.20;105164;1254;60424;-56
2024/01/27 03:15:15;;;;;;;2.70;0.90;;;;;;;1.29;100.00;100527.08;105037;1259;60581;-55
2024/01/27 03:17:43;;;;;;;1.30;1.10;;;;;;;1.27;100.00;100524.96;105126;1254;73960;-55
2024/01/27 03:20:10;;;;;;;1.30;1.00;;;;;;;1.24;100.00;100523.89;105279;1254;66855;-54
2024/01/27 03:22:40;;;;;;;1.30;1.10;;;;;;;1.22;100.00;100521.58;105227;1254;73144;-55
2024/01/27 03:25:10;;;;;;;1.40;0.90;;;;;;;1.22;100.00;100521.40;105749;1254;60495;-55
2024/01/27 03:27:37;;;;;;;1.40;0.90;;;;;;;1.23;100.00;100519.83;105667;1257;60503;-55
2024/01/27 03:30:05;;;;;;;1.00;0.90;;;;;;;1.24;100.00;100517.17;105077;1254;72618;-56
2024/01/27 03:32:33;;;;;;;1.00;0.90;;;;;;;1.27;100.00;100519.13;105367;1254;66774;-54
2024/01/27 03:35:00;;;;;;;1.30;1.10;;;;;;;1.30;100.00;100520.71;105115;1259;72671;-55
2024/01/27 03:37:28;;;;;;;1.30;1.10;;;;;;;1.33;100.00;100522.14;105144;1258;61468;-55
2024/01/27 03:39:55;;;;;;;1.20;1.10;;;;;;;1.35;100.00;100521.97;105280;1258;60325;-56
2024/01/27 03:42:24;;;;;;;1.00;0.90;;;;;;;1.35;100.00;100524.09;105075;1253;74079;-53
2024/01/27 03:44:51;;;;;;;1.40;1.30;;;;;;;1.32;100.00;100521.60;105006;1257;66970;-56
2024/01/27 03:47:19;;;;;;;1.50;1.10;;;;;;;1.29;100.00;100520.88;106325;1254;70286;-55
2024/01/27 03:49:47;;;;;;;1.00;0.90;;;;;;;1.25;100.00;100522.66;105241;1253;60919;-59
2024/01/27 03:52:15;;;;;;;1.10;1.00;;;;;;;1.20;100.00;100520.34;105304;1254;60487;-59
2024/01/27 03:54:42;;;;;;;1.00;0.90;;;;;;;1.20;100.00;100521.93;105179;1254;73915;-54
2024/01/27 03:57:09;;;;;;;0.90;0.80;;;;;;;1.22;100.00;100520.34;105013;1254;66991;-61
2024/01/27 03:59:41;;;;;;;4.50;1.10;;;;;;;1.23;100.00;100525.83;105101;1256;71422;-55
2024/01/27 04:02:08;;;;;;;1.60;1.00;;;;;;;1.25;100.00;100529.73;105933;1253;60428;-56
2024/01/27 04:04:35;;;;;;;1.00;0.90;;;;;;;1.26;100.00;100532.57;105056;1258;60448;-59
2024/01/27 04:07:03;;;;;;;1.10;1.00;;;;;;;1.27;100.00;100534.16;105833;1257;72365;-55
2024/01/27 04:09:30;;;;;;;1.20;1.10;;;;;;;1.26;100.00;100529.73;105435;1254;65039;-55
2024/01/27 04:11:58;;;;;;;1.30;1.20;;;;;;;1.25;100.00;100532.04;104947;1254;73188;-55
2024/01/27 04:14:25;;;;;;;1.20;1.00;;;;;;;1.23;100.00;100531.30;105572;1254;60455;-54
2024/01/27 04:16:52;;;;;;;1.20;1.00;;;;;;;1.21;100.00;100528.64;104958;1254;60571;-55
2024/01/27 04:19:20;;;;;;;1.20;1.10;;;;;;;1.17;100.00;100528.13;104943;1254;73919;-54
2024/01/27 04:21:47;;;;;;;1.90;1.00;;;;;;;1.12;100.00;100527.73;104959;1253;66925;-59
2024/01/27 04:24:14;;;;;;;1.10;0.80;;;;;;;1.11;100.00;100527.02;105019;1254;71447;-54
2024/01/27 04:26:42;;;;;;;1.40;0.90;;;;;;;1.12;100.00;100527.75;104917;1259;60468;-52
2024/01/27 04:29:14;;;;;;;0.90;0.70;;;;;;;1.13;100.00;100526.87;105598;1254;60548;-57
2024/01/27 04:31:42;;;;;;;1.00;0.80;;;;;;;1.14;100.00;100530.59;104943;1254;74278;-55
2024/01/27 04:34:10;;;;;;;1.00;0.90;;;;;;;1.16;100.00;100528.83;104796;1256;65759;-54
2024/01/27 04:36:37;;;;;;;1.00;0.90;;;;;;;1.15;100.00;100533.77;105316;1254;73676;-54
2024/01/27 04:39:05;;;;;;;1.20;1.10;;;;;;;1.13;100.00;100537.12;104964;1254;60550;-53
2024/01/27 04:41:32;;;;;;;1.40;1.20;;;;;;;1.10;100.00;100536.94;105087;1254;60607;-53
2024/01/27 04:44:00;;;;;;;1.20;1.00;;;;;;;1.09;100.00;100537.65;105050;1254;73749;-52
2024/01/27 04:46:27;;;;;;;0.90;0.80;;;;;;;1.08;100.00;100539.07;104972;1254;65631;-56
2024/01/27 04:48:55;;;;;;;1.00;0.80;;;;;;;1.08;100.00;100540.84;104891;1254;72677;-56
2024/01/27 04:51:22;;;;;;;0.90;0.80;;;;;;;1.09;100.00;100542.96;105275;1254;60446;-55
2024/01/27 04:53:50;;;;;;;1.50;1.30;;;;;;;1.11;100.00;100547.72;105063;1254;60553;-54
2024/01/27 04:56:17;;;;;;;1.50;1.30;;;;;;;1.14;100.00;100555.52;104840;1253;71801;-58
2024/01/27 04:58:45;;;;;;;2.40;1.20;;;;;;;1.18;100.00;100556.23;104835;1254;67479;-55
2024/01/27 05:01:12;;;;;;;2.00;1.50;;;;;;;1.22;100.00;100558.17;105061;1254;70522;-55
2024/01/27 05:03:40;;;;;;;3.20;1.90;;;;;;;1.23;100.00;100557.84;105009;1253;60409;-56
2024/01/27 05:06:08;;;;;;;2.50;1.90;;;;;;;1.24;100.00;100557.30;105328;1254;60526;-55
2024/01/27 05:08:37;;;;;;;2.90;2.10;;;;;;;1.23;100.00;100559.42;105286;1254;73967;-52
2024/01/27 05:11:04;;;;;;;2.20;1.80;;;;;;;1.20;100.00;100557.29;105471;1254;65737;-55
2024/01/27 05:13:31;;;;;;;2.20;1.80;;;;;;;1.18;100.00;100558.89;105023;1253;70476;-55
2024/01/27 05:15:59;;;;;;;2.30;2.00;;;;;;;1.15;100.00;100559.76;104927;1257;60963;-55
2024/01/27 05:18:26;;;;;;;1.90;1.60;;;;;;;1.14;100.00;100560.11;105079;1255;60517;-57
2024/01/27 05:20:54;;;;;;;2.20;1.40;;;;;;;1.14;100.00;100559.58;105462;1257;73815;-55
2024/01/27 05:23:21;;;;;;;2.10;1.50;;;;;;;1.17;100.00;100558.71;105310;1253;66247;-55
2024/01/27 05:25:48;;;;;;;1.50;1.20;;;;;;;1.20;100.00;100560.48;104972;1256;72172;-55
2024/01/27 05:28:16;;;;;;;2.40;1.70;;;;;;;1.23;100.00;100562.24;104968;1254;60505;-58
2024/01/27 05:30:43;;;;;;;1.50;1.40;;;;;;;1.24;100.00;100559.79;105119;1254;60450;-54
2024/01/27 05:35:44;;;;;;;1.50;1.40;;;;;;;1.29;100.00;100682.16;101850;1294;600441;-52
2024/01/27 05:38:11;;;;;;;1.50;1.40;;;;;;;1.25;100.00;100707.60;104043;1271;59731;-54
2024/01/27 05:40:39;;;;;;;1.30;1.00;;;;;;;1.23;100.00;100702.28;104159;1271;60496;-56
2024/01/27 05:43:08;;;;;;;1.60;1.20;;;;;;;1.22;100.00;100686.53;103859;1267;73289;-57
2024/01/27 05:45:35;;;;;;;2.00;1.40;;;;;;;1.19;100.00;100682.30;104176;1267;66739;-54
2024/01/27 05:48:03;;;;;;;1.30;1.00;;;;;;;1.17;100.00;100675.73;104808;1267;71440;-57
2024/01/27 05:50:32;;;;;;;1.40;1.30;;;;;;;1.16;100.00;100674.67;105782;1262;155419;-55
2024/01/27 05:52:59;;;;;;;1.50;1.30;;;;;;;1.17;100.00;100674.14;104391;1267;59370;-57
2024/01/27 05:55:26;;;;;;;1.40;1.10;;;;;;;1.21;100.00;100674.86;104596;1261;75863;-55
2024/01/27 05:57:56;;;;;;;1.70;1.00;;;;;;;1.26;100.00;100675.79;104554;1260;65918;-54
2024/01/27 06:00:23;;;;;;;1.70;1.10;;;;;;;1.25;100.00;100674.37;104324;1260;73170;-54
2024/01/27 06:02:51;;;;;;;1.40;1.30;;;;;;;1.26;100.00;100668.18;104565;1260;59682;-55
2024/01/27 06:05:19;;;;;;;1.70;1.20;;;;;;;1.27;100.00;100669.77;104689;1259;59728;-53
2024/01/27 06:07:47;;;;;;;1.80;1.50;;;;;;;1.26;100.00;100668.36;104280;1260;73088;-55
2024/01/27 06:10:15;;;;;;;2.00;1.30;;;;;;;1.25;100.00;100667.82;104650;1258;66649;-54
2024/01/27 06:12:42;;;;;;;1.20;1.00;;;;;;;1.24;100.00;100667.28;104677;1261;72788;-53
2024/01/27 06:15:10;;;;;;;1.60;1.10;;;;;;;1.24;100.00;100668.70;104753;1263;59628;-56
2024/01/27 06:17:38;;;;;;;1.60;1.10;;;;;;;1.23;100.00;100666.56;104717;1262;59648;-53
2024/01/27 06:20:06;;;;;;;1.50;1.40;;;;;;;1.25;100.00;100668.36;104560;1257;72986;-54
2024/01/27 06:22:34;;;;;;;1.30;1.10;;;;;;;1.25;100.00;100668.00;107834;1258;67661;-55
2024/01/27 06:25:01;;;;;;;1.50;1.10;;;;;;;1.27;100.00;100671.19;104508;1263;71443;-55
2024/01/27 06:27:28;;;;;;;2.50;1.50;;;;;;;1.30;100.00;100673.67;104825;1257;59846;-55
2024/01/27 06:29:55;;;;;;;1.40;1.30;;;;;;;1.33;100.00;100676.34;104830;1258;59756;-55
2024/01/27 06:32:23;;;;;;;1.90;1.70;;;;;;;1.34;100.00;100675.29;104474;1257;71835;-54
2024/01/27 06:34:50;;;;;;;2.00;1.90;;;;;;;1.34;100.00;100675.45;104746;1258;66047;-55
2024/01/27 06:37:18;;;;;;;2.00;1.90;;;;;;;1.33;100.00;100676.88;106040;1258;72236;-54
2024/01/27 06:39:49;;;;;;;2.00;1.60;;;;;;;1.32;100.00;100680.04;105389;1256;60854;-55
2024/01/27 06:42:16;;;;;;;2.80;1.70;;;;;;;1.31;100.00;100680.04;104621;1259;59870;-56
2024/01/27 06:44:44;;;;;;;2.00;1.90;;;;;;;1.31;100.00;100680.21;104991;1262;71339;-59
2024/01/27 06:47:11;;;;;;;1.50;1.40;;;;;;;1.32;100.00;100687.12;104613;1261;66987;-59
2024/01/27 06:49:39;;;;;;;2.40;1.80;;;;;;;1.34;100.00;100688.73;104458;1262;70984;-54
2024/01/27 06:52:06;;;;;;;3.20;2.60;;;;;;;1.38;100.00;100692.26;104834;1257;59734;-54
2024/01/27 06:54:34;;;;;;;2.80;2.60;;;;;;;1.41;100.00;100689.45;104635;1256;59945;-57
2024/01/27 06:57:01;;;;;;;3.30;2.80;;;;;;;1.44;100.00;100692.65;104507;1259;73491;-54
2024/01/27 06:59:29;;;;;;;3.60;3.40;;;;;;;1.46;100.00;100694.23;104498;1257;67870;-56
2024/01/27 07:01:56;;;;;;;3.20;3.00;;;;;;;1.47;100.00;100696.90;104747;1262;71429;-56
2024/01/27 07:04:24;;;;;;;3.30;3.00;;;;;;;1.48;100.00;100698.50;104717;1257;59791;-58
2024/01/27 07:06:51;;;;;;;3.70;3.20;;;;;;;1.47;100.00;100698.66;104744;1258;59834;-54
2024/01/27 07:09:19;;;;;;;3.10;2.80;;;;;;;1.47;100.00;100700.79;104786;1260;72737;-52
2024/01/27 07:11:47;;;;;;;2.60;2.40;;;;;;;1.46;100.00;100702.20;104580;1256;67281;-57
2024/01/27 07:14:14;;;;;;;3.20;2.60;;;;;;;1.47;100.00;100704.14;104714;1264;75268;-55
2024/01/27 07:16:41;;;;;;;3.50;3.10;;;;;;;1.51;100.00;100706.65;104635;1260;60820;-55
2024/01/27 07:19:09;;;;;;;2.50;2.20;;;;;;;1.56;100.00;100707.72;104653;1262;59642;-54
2024/01/27 07:21:36;;;;;;;2.50;2.30;;;;;;;1.57;100.00;100707.36;105046;1257;71617;-54
2024/01/27 07:24:04;;;;;;;2.90;2.60;;;;;;;1.59;100.00;100709.33;104488;1256;67551;-56
2024/01/27 07:26:31;;;;;;;2.40;2.20;;;;;;;1.60;100.00;100707.57;104509;1259;71755;-56
2024/01/27 07:29:00;;;;;;;2.10;1.80;;;;;;;1.60;100.00;100706.50;105032;1256;60329;-55
2024/01/27 07:31:27;;;;;;;2.60;2.40;;;;;;;1.57;100.00;100703.66;104607;1257;59756;-52
2024/01/27 07:33:54;;;;;;;3.10;2.80;;;;;;;1.54;100.00;100707.89;104618;1260;71753;-54
2024/01/27 07:36:22;;;;;;;4.10;2.30;;;;;;;1.50;100.00;100709.30;105535;1254;67461;-55
2024/01/27 07:38:49;;;;;;;2.30;1.90;;;;;;;1.49;100.00;100708.06;104993;1255;72704;-57
2024/01/27 07:41:16;;;;;;;2.20;2.00;;;;;;;1.47;100.00;100706.63;104737;1258;60921;-58
2024/01/27 07:43:44;;;;;;;9.20;6.60;;;;;;;1.46;100.00;100701.84;104738;1254;60526;-55
2024/01/27 07:46:11;;;;;;;13.80;9.20;;;;;;;1.50;100.00;100703.98;104887;1257;73142;-54
2024/01/27 07:48:38;;;;;;;12.00;6.40;;;;;;;1.54;100.00;100708.23;104605;1261;66937;-54
2024/01/27 07:51:06;;;;;;;27.60;15.80;;;;;;;1.57;100.00;100710.73;104862;1257;72638;-54
2024/01/27 07:53:34;;;;;;;26.50;15.90;;;;;;;1.61;100.00;100711.64;104999;1256;59891;-53
2024/01/27 07:56:01;;;;;;;6.70;5.20;;;;;;;1.62;100.00;100714.27;104777;1257;60130;-55
2024/01/27 07:58:32;;;;;;;10.30;7.60;;;;;;;1.62;100.00;100716.94;104584;1257;71777;-55
2024/01/27 08:01:00;;;;;;;6.30;5.00;;;;;;;1.61;100.00;100720.48;104703;1261;67410;-57
2024/01/27 08:03:27;;;;;;;91.00;35.10;;;;;;;1.58;100.00;100721.89;108511;1256;71422;-53
2024/01/27 08:05:55;;;;;;;34.90;17.90;;;;;;;1.52;100.00;100722.22;104768;1254;59969;-54
2024/01/27 08:08:23;;;;;;;4.40;4.00;;;;;;;1.49;100.00;100726.80;108319;1254;58809;-55
2024/01/27 08:10:50;;;;;;;2.80;2.60;;;;;;;1.49;100.00;100727.68;104773;1256;73511;-52
2024/01/27 08:13:17;;;;;;;2.40;2.20;;;;;;;1.51;100.00;100731.59;104708;1254;65549;-50
2024/01/27 08:15:45;;;;;;;2.00;1.60;;;;;;;1.52;100.00;100732.48;104703;1258;73546;-51
2024/01/27 08:18:13;;;;;;;2.50;2.20;;;;;;;1.57;100.00;100735.14;105185;1259;60332;-55
2024/01/27 08:20:40;;;;;;;3.00;2.80;;;;;;;1.59;100.00;100736.05;104679;1254;62736;-54
2024/01/27 08:23:08;;;;;;;3.80;3.00;;;;;;;1.61;100.00;100737.13;104641;1259;73488;-55
2024/01/27 08:25:35;;;;;;;3.70;2.70;;;;;;;1.62;100.00;100738.50;106483;1259;66046;-52
2024/01/27 08:28:03;;;;;;;14.90;9.10;;;;;;;1.63;100.00;100740.64;104712;1261;70478;-51
2024/01/27 08:30:31;;;;;;;14.10;9.50;;;;;;;1.58;100.00;100742.58;105300;1260;59773;-53
2024/01/27 08:32:58;;;;;;;10.90;7.40;;;;;;;1.56;100.00;100745.04;104665;1254;59795;-53
2024/01/27 08:35:26;;;;;;;5.50;3.90;;;;;;;1.53;100.00;100747.86;105256;1257;73562;-53
2024/01/27 08:37:53;;;;;;;5.40;4.10;;;;;;;1.51;100.00;100749.64;104856;1257;66858;-52
2024/01/27 08:40:20;;;;;;;83.90;26.00;;;;;;;1.52;100.00;100751.40;104791;1257;72464;-56
2024/01/27 08:42:47;;;;;;;28.80;15.20;;;;;;;1.57;100.00;100750.52;104858;1260;60762;-53
2024/01/27 08:45:15;;;;;;;30.70;9.70;;;;;;;1.62;100.00;100753.02;104900;1256;60047;-55
2024/01/27 08:47:42;;;;;;;75.50;27.40;;;;;;;1.64;100.00;100751.97;104888;1256;73086;-54
2024/01/27 08:50:10;;;;;;;28.70;20.30;;;;;;;1.62;100.00;100753.55;104841;1259;68818;-53
2024/01/27 08:52:38;;;;;;;5.20;4.00;;;;;;;1.62;100.00;100754.79;106894;1254;72518;-54
2024/01/27 08:55:06;;;;;;;51.20;19.70;;;;;;;1.62;100.00;100753.73;104995;1259;60828;-56
2024/01/27 08:57:33;;;;;;;35.20;18.40;;;;;;;1.61;100.00;100751.79;105064;1254;60070;-54
2024/01/27 09:00:00;;;;;;;4.60;3.50;;;;;;;1.60;100.00;100760.81;108738;1254;71882;-55
2024/01/27 09:02:28;;;;;;;7.90;5.40;;;;;;;1.58;100.00;100756.20;105562;1257;68986;-54
2024/01/27 09:04:56;;;;;;;5.00;4.40;;;;;;;1.60;100.00;100760.82;104805;1256;72749;-56
2024/01/27 09:07:23;;;;;;;3.20;2.90;;;;;;;1.63;100.00;100762.59;105590;1254;59715;-59
2024/01/27 09:09:51;;;;;;;3.70;3.30;;;;;;;1.67;100.00;100766.86;104706;1254;60648;-56
2024/01/27 09:12:18;;;;;;;2.40;2.20;;;;;;;1.70;100.00;100767.58;104950;1256;73362;-55
2024/01/27 09:14:45;;;;;;;3.30;2.10;;;;;;;1.75;100.00;100771.48;104677;1254;68033;-53
2024/01/27 09:17:13;;;;;;;2.10;1.90;;;;;;;1.78;100.00;100773.80;104703;1259;72510;-54
2024/01/27 09:19:40;;;;;;;4.00;2.60;;;;;;;1.78;100.00;100773.27;104746;1258;59714;-55
2024/01/27 09:22:07;;;;;;;3.70;3.00;;;;;;;1.75;100.00;100773.44;105244;1253;60073;-53
2024/01/27 09:24:35;;;;;;;3.50;3.20;;;;;;;1.70;100.00;100777.30;104921;1260;72259;-55
2024/01/27 09:27:02;;;;;;;2.50;2.00;;;;;;;1.68;100.00;100768.46;104870;1258;65774;-56
2024/01/27 09:29:30;;;;;;;3.90;2.50;;;;;;;1.67;100.00;100766.67;104799;1254;72665;-57
2024/01/27 09:31:57;;;;;;;4.30;3.30;;;;;;;1.67;100.00;100762.79;105012;1256;61021;-59
2024/01/27 09:34:24;;;;;;;2.80;2.00;;;;;;;1.68;100.00;100759.96;104906;1254;61330;-54
2024/01/27 09:36:52;;;;;;;5.90;2.50;;;;;;;1.71;100.00;100764.91;105036;1259;72654;-55
2024/01/27 09:39:19;;;;;;;2.70;2.50;;;;;;;1.72;100.00;100763.86;104880;1256;64913;-56
2024/01/27 09:41:46;;;;;;;2.80;2.60;;;;;;;1.74;100.00;100769.54;104972;1259;72769;-53
2024/01/27 09:44:14;;;;;;;3.00;2.50;;;;;;;1.76;100.00;100771.14;104665;1263;60539;-56
2024/01/27 09:46:41;;;;;;;4.50;3.70;;;;;;;1.75;100.00;100774.32;104798;1259;60533;-54
2024/01/27 09:49:08;;;;;;;3.60;2.70;;;;;;;1.71;100.00;100779.60;104693;1254;72683;-55
2024/01/27 09:51:36;;;;;;;2.60;2.00;;;;;;;1.68;100.00;100776.07;106056;1254;67300;-53
2024/01/27 09:54:03;;;;;;;4.30;1.80;;;;;;;1.66;100.00;100776.58;104375;1257;72022;-54
2024/01/27 09:56:31;;;;;;;2.80;2.20;;;;;;;1.63;100.00;100778.14;104734;1257;60546;-55
2024/01/27 09:58:59;;;;;;;1.70;1.60;;;;;;;1.61;100.00;100779.04;105632;1261;60553;-54
2024/01/27 10:01:27;;;;;;;1.80;1.60;;;;;;;1.63;100.00;100777.98;104690;1259;74528;-53
2024/01/27 10:03:55;;;;;;;2.10;1.90;;;;;;;1.64;100.00;100783.64;106234;1259;67083;-53
2024/01/27 10:06:23;;;;;;;3.70;2.90;;;;;;;1.66;100.00;100785.08;104673;1260;72754;-59
2024/01/27 10:08:54;;;;;;;3.20;2.60;;;;;;;1.69;100.00;100784.39;104759;1259;60539;-54
2024/01/27 10:11:22;;;;;;;6.40;3.90;;;;;;;1.69;100.00;100786.69;104603;1254;60440;-54
2024/01/27 10:13:57;;;;;;;9.40;5.90;;;;;;;1.67;100.00;100790.21;104684;1254;73828;-58
2024/01/27 10:16:27;;;;;;;6.30;4.50;;;;;;;1.67;100.00;100791.45;104974;1259;67033;-59
2024/01/27 10:19:01;;;;;;;6.20;3.90;;;;;;;1.68;100.00;100792.87;106324;1259;71271;-56
2024/01/27 10:21:29;;;;;;;4.90;3.50;;;;;;;1.70;100.00;100796.60;105130;1254;60425;-53
2024/01/27 10:23:57;;;;;;;7.00;3.60;;;;;;;1.73;100.00;100793.41;105808;1258;60458;-56
2024/01/27 10:26:25;;;;;;;2.80;2.50;;;;;;;1.74;100.00;100798.02;106030;1255;74181;-56
2024/01/27 10:28:55;;;;;;;2.60;2.30;;;;;;;1.77;100.00;100800.88;104774;1254;65364;-55
2024/01/27 10:31:29;;;;;;;3.10;2.10;;;;;;;1.79;100.00;100807.59;104912;1256;71656;-55
2024/01/27 10:33:57;;;;;;;2.80;2.40;;;;;;;1.80;100.00;100808.83;104710;1256;60601;-54
2024/01/27 10:36:26;;;;;;;4.20;3.20;;;;;;;1.80;100.00;100810.95;104925;1260;60575;-56
2024/01/27 10:38:53;;;;;;;4.00;2.00;;;;;;;1.78;100.00;100814.85;104667;1257;74725;-56
2024/01/27 10:41:24;;;;;;;2.50;2.30;;;;;;;1.74;100.00;100814.12;104686;1253;66069;-52
2024/01/27 10:43:55;;;;;;;2.70;2.00;;;;;;;1.69;100.00;100814.47;104857;1257;71634;-53
2024/01/27 10:46:22;;;;;;;3.60;1.80;;;;;;;1.66;100.00;100812.50;104771;1256;60561;-54
2024/01/27 10:48:51;;;;;;;2.10;1.80;;;;;;;1.66;100.00;100816.21;105561;1262;59878;-55
2024/01/27 10:51:32;;;;;;;2.60;2.10;;;;;;;1.66;100.00;100816.04;105447;1259;72682;-59
2024/01/27 10:54:02;;;;;;;2.10;1.90;;;;;;;1.69;100.00;100827.92;105571;1254;66774;-54
2024/01/27 10:56:31;;;;;;;2.10;1.90;;;;;;;1.74;100.00;100829.17;105715;1256;72575;-57
2024/01/27 10:58:59;;;;;;;3.20;2.20;;;;;;;1.75;100.00;100828.83;104691;1261;60502;-54
2024/01/27 11:01:26;;;;;;;3.40;3.00;;;;;;;1.74;100.00;100825.45;105917;1256;60460;-55
2024/01/27 11:03:54;;;;;;;3.60;3.30;;;;;;;1.72;100.00;100829.69;105594;1258;73905;-55
2024/01/27 11:06:22;;;;;;;2.70;2.50;;;;;;;1.71;100.00;100827.02;105990;1258;65377;-58
2024/01/27 11:08:50;;;;;;;2.30;1.90;;;;;;;1.71;100.00;100827.72;105690;1256;71446;-58
2024/01/27 11:11:17;;;;;;;2.50;2.10;;;;;;;1.70;100.00;100832.52;104813;1259;60643;-55
2024/01/27 11:13:47;;;;;;;2.40;2.10;;;;;;;1.72;100.00;100834.80;104649;1256;60333;-54
2024/01/27 11:16:16;;;;;;;2.80;1.90;;;;;;;1.74;100.00;100834.13;104400;1257;73878;-54
2024/01/27 11:18:44;;;;;;;2.80;2.20;;;;;;;1.79;100.00;100839.63;108815;1255;67506;-53
2024/01/27 11:21:15;;;;;;;2.70;2.00;;;;;;;1.83;100.00;100842.84;108255;1257;72506;-59